createdAt,value
2018-09-24T00:01:01.304Z,32.7
2018-09-24T00:02:03.733Z,32.6
2018-09-24T00:03:06.161Z,32.7
2018-09-24T00:04:08.313Z,32.6
2018-09-24T00:05:10.753Z,32.7
2018-09-24T00:06:13.193Z,32.6
2018-09-24T00:07:15.345Z,32.6
2018-09-24T00:08:17.779Z,32.6
2018-09-24T00:09:20.207Z,32.7
2018-09-24T00:10:22.650Z,32.7
2018-09-24T00:11:25.167Z,32.6
2018-09-24T00:12:27.635Z,32.6
2018-09-24T00:13:29.807Z,32.6
2018-09-24T00:14:32.241Z,32.7
2018-09-24T00:15:34.662Z,32.7
2018-09-24T00:16:37.101Z,32.6
2018-09-24T00:17:39.533Z,32.7
2018-09-24T00:18:41.963Z,32.6
2018-09-24T00:19:44.402Z,32.6
2018-09-24T00:20:46.829Z,32.6
2018-09-24T00:21:49.257Z,32.7
2018-09-24T00:22:51.692Z,32.7
2018-09-24T00:23:54.135Z,32.6
2018-09-24T00:24:56.567Z,32.6
2018-09-24T00:25:58.996Z,32.8
2018-09-24T00:27:01.432Z,32.6
2018-09-24T00:28:03.860Z,32.8
2018-09-24T00:29:06.304Z,32.8
2018-09-24T00:30:08.734Z,32.6
2018-09-24T00:31:11.156Z,32.6
2018-09-24T00:32:13.585Z,32.7
2018-09-24T00:33:16.030Z,32.6
2018-09-24T00:34:18.466Z,32.7
2018-09-24T00:35:20.616Z,32.7
2018-09-24T00:36:23.047Z,32.7
2018-09-24T00:37:25.216Z,32.7
2018-09-24T00:38:27.657Z,32.7
2018-09-24T00:39:30.085Z,32.7
2018-09-24T00:40:32.516Z,32.7
2018-09-24T00:41:34.682Z,32.6
2018-09-24T00:42:37.117Z,32.7
2018-09-24T00:43:39.709Z,32.6
2018-09-24T00:44:41.866Z,32.8
2018-09-24T00:45:44.291Z,32.7
2018-09-24T00:46:46.716Z,32.8
2018-09-24T00:47:48.872Z,32.7
2018-09-24T00:48:50.756Z,32.6
2018-09-24T00:49:52.919Z,32.7
2018-09-24T00:50:55.347Z,32.7
2018-09-24T00:51:57.777Z,32.7
2018-09-24T00:53:00.213Z,32.7
2018-09-24T00:54:02.637Z,32.6
2018-09-24T00:55:05.074Z,32.5
2018-09-24T00:56:07.517Z,32.6
2018-09-24T00:57:09.938Z,32.6
2018-09-24T00:58:12.367Z,32.7
2018-09-24T00:59:14.795Z,32.6
2018-09-24T01:00:16.946Z,32.5
2018-09-24T01:01:19.388Z,32.6
2018-09-24T01:02:21.551Z,32.6
2018-09-24T01:03:23.976Z,32.7
2018-09-24T01:04:26.406Z,32.6
2018-09-24T01:05:28.578Z,32.6
2018-09-24T01:06:31.013Z,32.9
2018-09-24T01:07:33.446Z,32.6
2018-09-24T01:08:35.606Z,32.7
2018-09-24T01:09:38.039Z,32.6
2018-09-24T01:10:40.186Z,32.6
2018-09-24T01:11:42.619Z,32.6
2018-09-24T01:12:45.044Z,32.6
2018-09-24T01:13:47.213Z,32.6
2018-09-24T01:14:49.645Z,32.6
2018-09-24T01:15:52.089Z,32.7
2018-09-24T01:16:54.525Z,32.6
2018-09-24T01:17:56.955Z,32.5
2018-09-24T01:18:59.376Z,32.6
2018-09-24T01:20:01.543Z,32.6
2018-09-24T01:21:04.016Z,32.7
2018-09-24T01:22:06.456Z,32.6
2018-09-24T01:23:08.881Z,32.6
2018-09-24T01:24:11.323Z,32.6
2018-09-24T01:25:13.755Z,32.6
2018-09-24T01:26:16.190Z,32.7
2018-09-24T01:27:18.616Z,32.8
2018-09-24T01:28:20.753Z,32.7
2018-09-24T01:29:23.188Z,32.6
2018-09-24T01:30:25.628Z,32.5
2018-09-24T01:31:28.056Z,32.6
2018-09-24T01:32:30.494Z,32.6
2018-09-24T01:33:32.636Z,32.6
2018-09-24T01:34:34.251Z,32.6
2018-09-24T01:35:36.694Z,32.6
2018-09-24T01:36:39.126Z,32.7
2018-09-24T01:37:41.282Z,32.7
2018-09-24T01:38:43.165Z,32.6
2018-09-24T01:39:45.318Z,32.6
2018-09-24T01:40:47.747Z,32.5
2018-09-24T01:41:49.906Z,32.7
2018-09-24T01:42:52.351Z,32.6
2018-09-24T01:43:54.788Z,32.6
2018-09-24T01:44:57.203Z,32.6
2018-09-24T01:45:59.632Z,32.7
2018-09-24T01:47:02.064Z,32.6
2018-09-24T01:48:04.496Z,32.6
2018-09-24T01:49:06.655Z,32.6
2018-09-24T01:50:09.090Z,32.7
2018-09-24T01:51:11.516Z,32.8
2018-09-24T01:52:13.944Z,32.6
2018-09-24T01:53:16.393Z,32.7
2018-09-24T01:54:18.823Z,32.8
2018-09-24T01:55:21.258Z,32.7
2018-09-24T01:56:23.450Z,32.6
2018-09-24T01:57:25.606Z,32.7
2018-09-24T01:58:28.038Z,32.6
2018-09-24T01:59:30.170Z,32.7
2018-09-24T02:00:32.604Z,32.6
2018-09-24T02:01:35.026Z,32.7
2018-09-24T02:02:37.212Z,32.6
2018-09-24T02:03:39.652Z,32.6
2018-09-24T02:04:41.805Z,32.5
2018-09-24T02:05:44.229Z,32.7
2018-09-24T02:06:46.650Z,32.5
2018-09-24T02:07:49.094Z,32.5
2018-09-24T02:08:51.526Z,32.6
2018-09-24T02:09:53.958Z,32.6
2018-09-24T02:10:56.381Z,32.5
2018-09-24T02:11:58.815Z,32.6
2018-09-24T02:13:00.949Z,32.7
2018-09-24T02:14:03.376Z,32.5
2018-09-24T02:15:05.527Z,32.7
2018-09-24T02:16:07.956Z,32.6
2018-09-24T02:17:10.394Z,32.6
2018-09-24T02:18:12.827Z,32.6
2018-09-24T02:19:15.254Z,32.6
2018-09-24T02:20:17.691Z,32.6
2018-09-24T02:21:20.123Z,32.6
2018-09-24T02:22:22.565Z,32.5
2018-09-24T02:23:24.179Z,32.6
2018-09-24T02:24:26.348Z,32.6
2018-09-24T02:25:28.772Z,32.6
2018-09-24T02:26:31.205Z,32.6
2018-09-24T02:27:33.636Z,32.6
2018-09-24T02:28:36.058Z,32.6
2018-09-24T02:29:38.481Z,32.6
2018-09-24T02:30:41.071Z,32.7
2018-09-24T02:31:43.503Z,32.6
2018-09-24T02:32:45.937Z,32.5
2018-09-24T02:33:48.085Z,32.5
2018-09-24T02:34:50.526Z,32.4
2018-09-24T02:35:52.979Z,32.5
2018-09-24T02:36:55.407Z,32.6
2018-09-24T02:37:57.842Z,32.6
2018-09-24T02:39:00.267Z,32.6
2018-09-24T02:40:02.687Z,32.6
2018-09-24T02:41:05.122Z,32.6
2018-09-24T02:42:07.558Z,32.6
2018-09-24T02:43:09.987Z,32.6
2018-09-24T02:44:12.420Z,32.5
2018-09-24T02:45:14.844Z,32.5
2018-09-24T02:46:17.276Z,32.6
2018-09-24T02:47:19.713Z,32.6
2018-09-24T02:48:21.870Z,32.6
2018-09-24T02:49:24.300Z,32.5
2018-09-24T02:50:26.734Z,32.5
2018-09-24T02:51:28.901Z,32.6
2018-09-24T02:52:31.334Z,32.6
2018-09-24T02:53:33.501Z,32.7
2018-09-24T02:54:35.946Z,32.5
2018-09-24T02:55:38.441Z,32.6
2018-09-24T02:56:40.870Z,32.6
2018-09-24T02:57:43.036Z,32.6
2018-09-24T02:58:45.470Z,32.6
2018-09-24T02:59:47.625Z,32.6
2018-09-24T03:00:49.799Z,32.6
2018-09-24T03:01:52.225Z,32.5
2018-09-24T03:02:54.657Z,32.5
2018-09-24T03:03:56.812Z,32.5
2018-09-24T03:04:59.243Z,32.6
2018-09-24T03:06:01.394Z,32.6
2018-09-24T03:07:03.826Z,32.6
2018-09-24T03:08:06.256Z,32.6
2018-09-24T03:09:08.678Z,32.6
2018-09-24T03:10:10.835Z,32.6
2018-09-24T03:11:13.266Z,32.5
2018-09-24T03:12:15.696Z,32.5
2018-09-24T03:13:18.124Z,32.6
2018-09-24T03:14:20.565Z,32.6
2018-09-24T03:15:22.997Z,32.6
2018-09-24T03:16:25.137Z,32.5
2018-09-24T03:17:27.565Z,32.6
2018-09-24T03:18:29.996Z,32.5
2018-09-24T03:19:32.148Z,32.6
2018-09-24T03:20:34.583Z,32.6
2018-09-24T03:21:36.467Z,32.5
2018-09-24T03:22:38.892Z,32.6
2018-09-24T03:23:41.328Z,32.5
2018-09-24T03:24:43.747Z,32.6
2018-09-24T03:25:46.174Z,32.6
2018-09-24T03:26:48.607Z,32.5
2018-09-24T03:27:51.030Z,32.5
2018-09-24T03:28:53.474Z,32.6
2018-09-24T03:29:55.898Z,32.5
2018-09-24T03:30:58.324Z,32.5
2018-09-24T03:32:00.480Z,32.5
2018-09-24T03:33:02.660Z,32.6
2018-09-24T03:34:05.091Z,32.4
2018-09-24T03:35:07.525Z,32.4
2018-09-24T03:36:09.955Z,32.5
2018-09-24T03:37:12.085Z,32.5
2018-09-24T03:38:14.522Z,32.6
2018-09-24T03:39:16.981Z,32.6
2018-09-24T03:40:19.418Z,32.4
2018-09-24T03:41:21.847Z,32.4
2018-09-24T03:42:24.275Z,32.4
2018-09-24T03:43:26.695Z,32.4
2018-09-24T03:44:28.856Z,32.5
2018-09-24T03:45:31.285Z,32.5
2018-09-24T03:46:33.716Z,32.6
2018-09-24T03:47:36.144Z,32.6
2018-09-24T03:48:38.023Z,32.5
2018-09-24T03:49:40.459Z,32.6
2018-09-24T03:50:42.883Z,32.5
2018-09-24T03:51:45.064Z,32.5
2018-09-24T03:52:47.494Z,32.5
2018-09-24T03:53:49.378Z,32.5
2018-09-24T03:54:51.800Z,32.6
2018-09-24T03:55:53.955Z,32.5
2018-09-24T03:56:56.426Z,32.5
2018-09-24T03:57:58.608Z,32.5
2018-09-24T03:59:01.194Z,32.4
2018-09-24T04:00:03.617Z,32.4
2018-09-24T04:01:05.746Z,32.5
2018-09-24T04:02:07.885Z,32.5
2018-09-24T04:03:10.332Z,32.6
2018-09-24T04:04:12.785Z,32.6
2018-09-24T04:05:14.951Z,32.5
2018-09-24T04:06:17.388Z,32.5
2018-09-24T04:07:19.812Z,32.5
2018-09-24T04:08:22.235Z,32.4
2018-09-24T04:09:24.818Z,32.5
2018-09-24T04:10:27.470Z,32.6
2018-09-24T04:11:29.896Z,32.5
2018-09-24T04:12:32.327Z,32.5
2018-09-24T04:13:33.922Z,32.6
2018-09-24T04:14:35.795Z,32.5
2018-09-24T04:15:38.231Z,32.6
2018-09-24T04:16:40.661Z,32.5
2018-09-24T04:17:43.086Z,32.5
2018-09-24T04:18:45.535Z,32.5
2018-09-24T04:19:47.708Z,32.6
2018-09-24T04:20:50.136Z,32.4
2018-09-24T04:21:52.570Z,32.3
2018-09-24T04:22:55.006Z,32.5
2018-09-24T04:23:57.140Z,32.4
2018-09-24T04:24:59.577Z,32.5
2018-09-24T04:26:02.140Z,32.4
2018-09-24T04:27:04.694Z,32.5
2018-09-24T04:28:07.163Z,32.5
2018-09-24T04:29:09.598Z,32.4
2018-09-24T04:30:12.026Z,32.5
2018-09-24T04:31:14.462Z,32.4
2018-09-24T04:32:16.902Z,32.4
2018-09-24T04:33:19.055Z,32.5
2018-09-24T04:34:21.488Z,32.4
2018-09-24T04:35:23.920Z,32.5
2018-09-24T04:36:26.366Z,32.4
2018-09-24T04:37:28.541Z,32.4
2018-09-24T04:38:30.976Z,32.4
2018-09-24T04:39:33.293Z,32.5
2018-09-24T04:40:35.995Z,32.5
2018-09-24T04:41:38.436Z,32.4
2018-09-24T04:42:40.598Z,32.4
2018-09-24T04:43:43.033Z,32.5
2018-09-24T04:44:45.477Z,32.4
2018-09-24T04:45:47.634Z,32.4
2018-09-24T04:46:50.066Z,32.4
2018-09-24T04:47:52.499Z,32.5
2018-09-24T04:48:54.926Z,32.5
2018-09-24T04:49:57.440Z,32.5
2018-09-24T04:50:59.891Z,32.5
2018-09-24T04:52:02.323Z,32.5
2018-09-24T04:53:04.765Z,32.5
2018-09-24T04:54:07.196Z,32.4
2018-09-24T04:55:09.644Z,32.4
2018-09-24T04:56:11.795Z,32.5
2018-09-24T04:57:14.286Z,32.6
2018-09-24T04:58:16.717Z,32.4
2018-09-24T04:59:18.887Z,32.4
2018-09-24T05:00:21.022Z,32.4
2018-09-24T05:01:23.453Z,32.5
2018-09-24T05:02:25.616Z,32.5
2018-09-24T05:03:28.051Z,32.5
2018-09-24T05:04:30.224Z,32.5
2018-09-24T05:05:32.657Z,32.4
2018-09-24T05:06:35.094Z,32.3
2018-09-24T05:07:37.526Z,32.5
2018-09-24T05:08:39.954Z,32.5
2018-09-24T05:09:42.125Z,32.6
2018-09-24T05:10:44.271Z,32.5
2018-09-24T05:11:46.706Z,32.5
2018-09-24T05:12:49.146Z,32.4
2018-09-24T05:13:51.583Z,32.5
2018-09-24T05:14:54.014Z,32.6
2018-09-24T05:15:56.450Z,32.5
2018-09-24T05:16:58.917Z,32.4
2018-09-24T05:18:01.347Z,32.4
2018-09-24T05:19:03.779Z,32.5
2018-09-24T05:20:06.351Z,32.5
2018-09-24T05:21:08.944Z,32.5
2018-09-24T05:22:11.390Z,32.4
2018-09-24T05:23:13.852Z,32.5
2018-09-24T05:24:16.292Z,32.6
2018-09-24T05:25:18.729Z,32.5
2018-09-24T05:26:21.172Z,32.4
2018-09-24T05:27:23.733Z,32.4
2018-09-24T05:28:26.415Z,32.4
2018-09-24T05:29:28.868Z,32.6
2018-09-24T05:30:31.318Z,32.5
2018-09-24T05:31:33.755Z,32.5
2018-09-24T05:32:36.200Z,32.5
2018-09-24T05:33:38.622Z,32.4
2018-09-24T05:34:40.793Z,32.5
2018-09-24T05:35:43.242Z,32.6
2018-09-24T05:36:45.692Z,32.4
2018-09-24T05:37:48.126Z,32.5
2018-09-24T05:38:50.565Z,32.4
2018-09-24T05:39:52.996Z,32.4
2018-09-24T05:40:55.444Z,32.5
2018-09-24T05:41:57.876Z,32.5
2018-09-24T05:43:00.316Z,32.4
2018-09-24T05:44:02.743Z,32.4
2018-09-24T05:45:05.305Z,32.5
2018-09-24T05:46:07.827Z,32.4
2018-09-24T05:47:10.284Z,32.5
2018-09-24T05:48:12.732Z,32.5
2018-09-24T05:49:15.167Z,32.4
2018-09-24T05:50:17.607Z,32.5
2018-09-24T05:51:20.052Z,32.6
2018-09-24T05:52:22.495Z,32.5
2018-09-24T05:53:24.927Z,32.6
2018-09-24T05:54:27.512Z,32.5
2018-09-24T05:55:30.000Z,32.6
2018-09-24T05:56:32.449Z,32.5
2018-09-24T05:57:34.876Z,32.5
2018-09-24T05:58:37.293Z,32.5
2018-09-24T05:59:39.728Z,32.5
2018-09-24T06:00:42.169Z,32.6
2018-09-24T06:01:44.604Z,32.5
2018-09-24T06:02:46.497Z,32.6
2018-09-24T06:03:48.925Z,32.5
2018-09-24T06:04:51.092Z,32.6
2018-09-24T06:05:53.515Z,32.4
2018-09-24T06:06:55.947Z,32.6
2018-09-24T06:07:58.376Z,32.5
2018-09-24T06:09:00.519Z,32.5
2018-09-24T06:10:02.682Z,32.5
2018-09-24T06:11:05.112Z,32.4
2018-09-24T06:12:07.541Z,32.4
2018-09-24T06:13:09.687Z,32.4
2018-09-24T06:14:12.135Z,32.5
2018-09-24T06:15:14.566Z,32.5
2018-09-24T06:16:17.004Z,32.6
2018-09-24T06:17:19.450Z,32.5
2018-09-24T06:18:21.890Z,32.5
2018-09-24T06:19:24.329Z,32.6
2018-09-24T06:20:26.751Z,32.5
2018-09-24T06:21:29.193Z,32.5
2018-09-24T06:22:31.634Z,32.4
2018-09-24T06:23:34.074Z,32.5
2018-09-24T06:24:36.507Z,32.6
2018-09-24T06:25:38.645Z,32.4
2018-09-24T06:26:41.074Z,32.5
2018-09-24T06:27:43.499Z,32.5
2018-09-24T06:28:45.930Z,32.4
2018-09-24T06:29:48.368Z,32.5
2018-09-24T06:30:50.817Z,32.5
2018-09-24T06:31:52.997Z,32.5
2018-09-24T06:32:55.431Z,32.5
2018-09-24T06:33:57.877Z,32.4
2018-09-24T06:35:00.317Z,32.5
2018-09-24T06:36:02.764Z,32.5
2018-09-24T06:37:05.189Z,32.6
2018-09-24T06:38:07.629Z,32.5
2018-09-24T06:39:10.055Z,32.5
2018-09-24T06:40:12.507Z,32.5
2018-09-24T06:41:15.130Z,32.4
2018-09-24T06:42:17.939Z,32.5
2018-09-24T06:43:20.457Z,32.5
2018-09-24T06:44:22.651Z,32.6
2018-09-24T06:45:25.130Z,32.5
2018-09-24T06:46:27.559Z,32.6
2018-09-24T06:47:30.012Z,32.6
2018-09-24T06:48:32.436Z,32.4
2018-09-24T06:49:34.927Z,32.4
2018-09-24T06:50:37.737Z,32.5
2018-09-24T06:51:39.601Z,32.5
2018-09-24T06:52:42.030Z,32.6
2018-09-24T06:53:44.458Z,32.5
2018-09-24T06:54:46.904Z,32.6
2018-09-24T06:55:49.328Z,32.6
2018-09-24T06:56:51.773Z,32.5
2018-09-24T06:57:54.206Z,32.5
2018-09-24T06:58:56.638Z,32.5
2018-09-24T06:59:58.798Z,32.5
2018-09-24T07:01:01.228Z,32.5
2018-09-24T07:02:03.671Z,32.4
2018-09-24T07:03:06.113Z,32.5
2018-09-24T07:04:08.544Z,32.5
2018-09-24T07:05:10.978Z,32.5
2018-09-24T07:06:13.422Z,32.4
2018-09-24T07:07:15.697Z,32.3
2018-09-24T07:08:18.150Z,32.5
2018-09-24T07:09:20.612Z,32.6
2018-09-24T07:10:22.785Z,32.5
2018-09-24T07:11:25.436Z,32.5
2018-09-24T07:12:28.253Z,32.5
2018-09-24T07:13:30.395Z,32.5
2018-09-24T07:14:32.829Z,32.4
2018-09-24T07:15:35.276Z,32.4
2018-09-24T07:16:37.751Z,32.4
2018-09-24T07:17:40.172Z,32.4
2018-09-24T07:18:42.604Z,32.4
2018-09-24T07:19:45.036Z,32.4
2018-09-24T07:20:47.469Z,32.5
2018-09-24T07:21:49.898Z,32.5
2018-09-24T07:22:52.330Z,32.4
2018-09-24T07:23:54.774Z,32.5
2018-09-24T07:24:57.218Z,32.3
2018-09-24T07:25:59.645Z,32.5
2018-09-24T07:27:02.087Z,32.5
2018-09-24T07:28:04.699Z,32.4
2018-09-24T07:29:07.430Z,32.4
2018-09-24T07:30:09.879Z,32.5
2018-09-24T07:31:12.304Z,32.4
2018-09-24T07:32:14.739Z,32.5
2018-09-24T07:33:17.391Z,32.6
2018-09-24T07:34:20.128Z,32.5
2018-09-24T07:35:22.567Z,32.5
2018-09-24T07:36:24.701Z,32.4
2018-09-24T07:37:26.570Z,32.5
2018-09-24T07:38:29.000Z,32.4
2018-09-24T07:39:31.430Z,32.5
2018-09-24T07:40:33.593Z,32.5
2018-09-24T07:41:36.030Z,32.5
2018-09-24T07:42:38.475Z,32.3
2018-09-24T07:43:40.909Z,32.4
2018-09-24T07:44:43.091Z,32.5
2018-09-24T07:45:45.514Z,32.4
2018-09-24T07:46:47.955Z,32.3
2018-09-24T07:47:50.391Z,32.4
2018-09-24T07:48:52.820Z,32.3
2018-09-24T07:49:55.251Z,32.4
2018-09-24T07:50:57.680Z,32.5
2018-09-24T07:52:00.182Z,32.4
2018-09-24T07:53:02.318Z,32.4
2018-09-24T07:54:04.487Z,32.5
2018-09-24T07:55:06.956Z,32.4
2018-09-24T07:56:09.406Z,32.5
2018-09-24T07:57:11.573Z,32.5
2018-09-24T07:58:14.000Z,32.4
2018-09-24T07:59:16.447Z,32.4
2018-09-24T08:00:18.875Z,32.5
2018-09-24T08:01:21.302Z,32.4
2018-09-24T08:02:23.756Z,32.4
2018-09-24T08:03:26.190Z,32.4
2018-09-24T08:04:28.620Z,32.4
2018-09-24T08:05:31.063Z,32.5
2018-09-24T08:06:33.503Z,32.5
2018-09-24T08:07:36.082Z,32.4
2018-09-24T08:08:38.996Z,32.4
2018-09-24T08:09:41.427Z,32.3
2018-09-24T08:10:43.301Z,32.3
2018-09-24T08:11:45.458Z,32.3
2018-09-24T08:12:47.936Z,32.4
2018-09-24T08:13:50.500Z,32.3
2018-09-24T08:14:52.940Z,32.5
2018-09-24T08:15:55.368Z,32.4
2018-09-24T08:16:57.798Z,32.4
2018-09-24T08:18:00.241Z,32.4
2018-09-24T08:19:02.414Z,32.4
2018-09-24T08:20:04.843Z,32.3
2018-09-24T08:21:07.058Z,32.4
2018-09-24T08:22:09.775Z,32.4
2018-09-24T08:23:12.209Z,32.3
2018-09-24T08:24:14.640Z,32.5
2018-09-24T08:25:16.801Z,32.4
2018-09-24T08:26:19.232Z,32.4
2018-09-24T08:27:21.385Z,32.3
2018-09-24T08:28:23.826Z,32.4
2018-09-24T08:29:25.990Z,32.3
2018-09-24T08:30:28.426Z,32.4
2018-09-24T08:31:30.867Z,32.3
2018-09-24T08:32:33.300Z,32.4
2018-09-24T08:33:35.730Z,32.3
2018-09-24T08:34:38.155Z,32.2
2018-09-24T08:35:40.628Z,32.3
2018-09-24T08:36:42.796Z,32.3
2018-09-24T08:37:45.227Z,32.3
2018-09-24T08:38:47.366Z,32.3
2018-09-24T08:39:49.791Z,32.3
2018-09-24T08:40:52.220Z,32.2
2018-09-24T08:41:54.639Z,32.2
2018-09-24T08:42:57.061Z,32.3
2018-09-24T08:43:59.239Z,32.2
2018-09-24T08:45:01.463Z,32.4
2018-09-24T08:46:03.888Z,32.4
2018-09-24T08:47:06.316Z,32.3
2018-09-24T08:48:08.737Z,32.3
2018-09-24T08:49:11.176Z,32.2
2018-09-24T08:50:13.601Z,32.3
2018-09-24T08:51:15.779Z,32.1
2018-09-24T08:52:17.941Z,32.3
2018-09-24T08:53:20.426Z,32.3
2018-09-24T08:54:22.879Z,32.3
2018-09-24T08:55:25.320Z,32.3
2018-09-24T08:56:27.490Z,32.4
2018-09-24T08:57:29.665Z,32.4
2018-09-24T08:58:32.158Z,32.3
2018-09-24T08:59:34.609Z,32.2
2018-09-24T09:00:37.024Z,32.4
2018-09-24T09:01:39.463Z,32.3
2018-09-24T09:02:41.966Z,32.2
2018-09-24T09:03:44.651Z,32.2
2018-09-24T09:04:47.085Z,32.3
2018-09-24T09:05:49.525Z,32.4
2018-09-24T09:06:51.959Z,32.3
2018-09-24T09:07:54.106Z,32.3
2018-09-24T09:08:56.535Z,32.2
2018-09-24T09:09:58.704Z,32.2
2018-09-24T09:11:01.150Z,32.2
2018-09-24T09:12:03.581Z,32.4
2018-09-24T09:13:06.013Z,32.2
2018-09-24T09:14:08.446Z,32.5
2018-09-24T09:15:10.876Z,32.3
2018-09-24T09:16:13.347Z,32.3
2018-09-24T09:17:15.850Z,32.2
2018-09-24T09:18:18.287Z,32.4
2018-09-24T09:19:20.758Z,32.4
2018-09-24T09:20:23.183Z,32.2
2018-09-24T09:21:25.616Z,32.3
2018-09-24T09:22:28.046Z,32.2
2018-09-24T09:23:30.468Z,32.3
2018-09-24T09:24:32.899Z,32.4
2018-09-24T09:25:35.333Z,32.4
2018-09-24T09:26:37.757Z,32.3
2018-09-24T09:27:40.186Z,32.3
2018-09-24T09:28:42.619Z,32.2
2018-09-24T09:29:45.065Z,32.1
2018-09-24T09:30:47.240Z,32.3
2018-09-24T09:31:49.666Z,32.5
2018-09-24T09:32:52.104Z,32.2
2018-09-24T09:33:54.534Z,32.3
2018-09-24T09:34:56.977Z,32.4
2018-09-24T09:35:59.127Z,32.3
2018-09-24T09:37:01.548Z,32.1
2018-09-24T09:38:03.973Z,32.3
2018-09-24T09:39:06.139Z,32.1
2018-09-24T09:40:08.299Z,32.1
2018-09-24T09:41:10.919Z,32.4
2018-09-24T09:42:13.748Z,32.3
2018-09-24T09:43:16.176Z,32.4
2018-09-24T09:44:18.044Z,32.3
2018-09-24T09:45:20.485Z,32.2
2018-09-24T09:46:22.912Z,32.2
2018-09-24T09:47:25.343Z,32.4
2018-09-24T09:48:27.763Z,32.3
2018-09-24T09:49:30.192Z,32.2
2018-09-24T09:50:32.634Z,32.3
2018-09-24T09:51:35.083Z,32.3
2018-09-24T09:52:37.245Z,32.3
2018-09-24T09:53:39.739Z,32.4
2018-09-24T09:54:42.501Z,32.2
2018-09-24T09:55:44.932Z,32.4
2018-09-24T09:56:47.366Z,32.2
2018-09-24T09:57:49.529Z,32.2
2018-09-24T09:58:51.957Z,32.3
2018-09-24T09:59:54.108Z,32.3
2018-09-24T10:00:56.547Z,32.2
2018-09-24T10:01:58.976Z,32.3
2018-09-24T10:03:01.406Z,32.3
2018-09-24T10:04:03.830Z,32.1
2018-09-24T10:05:06.280Z,32.3
2018-09-24T10:06:08.704Z,32.1
2018-09-24T10:07:11.140Z,32.3
2018-09-24T10:08:13.580Z,32.4
2018-09-24T10:09:16.017Z,32.3
2018-09-24T10:10:18.466Z,32.3
2018-09-24T10:11:20.793Z,32.3
2018-09-24T10:12:23.415Z,32.3
2018-09-24T10:13:25.852Z,32.4
2018-09-24T10:14:28.281Z,32.3
2018-09-24T10:15:30.716Z,32.3
2018-09-24T10:16:33.144Z,32.4
2018-09-24T10:17:35.274Z,32.3
2018-09-24T10:18:37.704Z,32.2
2018-09-24T10:19:40.140Z,32.4
2018-09-24T10:20:42.284Z,32.3
2018-09-24T10:21:44.455Z,32.3
2018-09-24T10:22:47.072Z,32.3
2018-09-24T10:23:49.651Z,32.2
2018-09-24T10:24:52.074Z,32.3
2018-09-24T10:25:54.503Z,32.3
2018-09-24T10:26:56.929Z,32.4
2018-09-24T10:27:59.356Z,32.5
2018-09-24T10:29:01.488Z,32.5
2018-09-24T10:30:03.661Z,32.3
2018-09-24T10:31:06.081Z,32.5
2018-09-24T10:32:08.516Z,32.4
2018-09-24T10:33:10.949Z,32.3
2018-09-24T10:34:13.378Z,32.2
2018-09-24T10:35:15.817Z,32.2
2018-09-24T10:36:17.986Z,32.4
2018-09-24T10:37:20.419Z,32.4
2018-09-24T10:38:22.834Z,32.2
2018-09-24T10:39:25.265Z,32.4
2018-09-24T10:40:27.738Z,32.4
2018-09-24T10:41:30.171Z,32.4
2018-09-24T10:42:32.334Z,32.4
2018-09-24T10:43:34.757Z,32.5
2018-09-24T10:44:37.194Z,32.4
2018-09-24T10:45:39.619Z,32.3
2018-09-24T10:46:42.052Z,32.4
2018-09-24T10:47:44.523Z,32.6
2018-09-24T10:48:46.995Z,32.4
2018-09-24T10:49:49.423Z,32.4
2018-09-24T10:50:51.852Z,32.3
2018-09-24T10:51:54.284Z,32.4
2018-09-24T10:52:56.775Z,32.3
2018-09-24T10:53:59.452Z,32.5
2018-09-24T10:55:01.359Z,32.5
2018-09-24T10:56:03.885Z,32.5
2018-09-24T10:57:06.312Z,32.3
2018-09-24T10:58:08.773Z,32.5
2018-09-24T10:59:11.346Z,32.4
2018-09-24T11:00:13.837Z,32.6
2018-09-24T11:01:16.323Z,32.4
2018-09-24T11:02:18.935Z,32.4
2018-09-24T11:03:21.370Z,32.5
2018-09-24T11:04:23.807Z,32.4
2018-09-24T11:05:26.240Z,32.5
2018-09-24T11:06:28.666Z,32.3
2018-09-24T11:07:31.085Z,32.5
2018-09-24T11:08:33.248Z,32.3
2018-09-24T11:09:35.679Z,32.3
2018-09-24T11:10:38.139Z,32.3
2018-09-24T11:11:40.572Z,32.5
2018-09-24T11:12:42.998Z,32.3
2018-09-24T11:13:45.433Z,32.3
2018-09-24T11:14:47.866Z,32.3
2018-09-24T11:15:50.523Z,32.3
2018-09-24T11:16:54.003Z,32.4
2018-09-24T11:17:57.936Z,32.4
2018-09-24T11:19:00.750Z,32.5
2018-09-24T11:20:03.196Z,32.3
2018-09-24T11:21:05.629Z,32.4
2018-09-24T11:22:08.251Z,32.2
2018-09-24T11:23:10.478Z,32.5
2018-09-24T11:24:13.251Z,32.5
2018-09-24T11:25:15.683Z,32.4
2018-09-24T11:27:23.127Z,32.4
2018-09-24T11:28:25.567Z,32.4
2018-09-24T11:29:28.223Z,32.4
2018-09-24T11:30:31.072Z,32.4
2018-09-24T11:31:33.505Z,32.5
2018-09-24T11:32:35.947Z,32.4
2018-09-24T11:33:38.374Z,32.3
2018-09-24T11:34:40.816Z,32.3
2018-09-24T11:35:43.242Z,32.4
2018-09-24T11:36:45.868Z,32.6
2018-09-24T11:37:48.324Z,32.3
2018-09-24T11:38:50.757Z,32.5
2018-09-24T11:39:53.198Z,32.5
2018-09-24T11:40:55.630Z,32.5
2018-09-24T11:41:58.065Z,32.5
2018-09-24T11:43:00.498Z,32.5
2018-09-24T11:44:02.935Z,32.3
2018-09-24T11:45:05.382Z,32.3
2018-09-24T11:46:07.823Z,32.4
2018-09-24T11:47:10.148Z,32.3
2018-09-24T11:48:13.037Z,32.4
2018-09-24T11:49:15.193Z,32.4
2018-09-24T11:50:17.635Z,32.5
2018-09-24T11:51:20.080Z,32.4
2018-09-24T11:52:22.506Z,32.4
2018-09-24T11:53:24.940Z,32.5
2018-09-24T11:54:27.366Z,32.3
2018-09-24T11:55:29.496Z,32.4
2018-09-24T11:56:31.924Z,32.5
2018-09-24T11:57:34.361Z,32.3
2018-09-24T11:58:36.791Z,32.5
2018-09-24T11:59:39.218Z,32.4
2018-09-24T12:00:41.643Z,32.3
2018-09-24T12:01:44.064Z,32.4
2018-09-24T12:02:46.497Z,32.3
2018-09-24T12:03:48.929Z,32.5
2018-09-24T12:04:51.350Z,32.4
2018-09-24T12:05:53.504Z,32.5
2018-09-24T12:06:55.922Z,32.3
2018-09-24T12:07:58.357Z,32.3
2018-09-24T12:09:00.787Z,32.4
2018-09-24T12:10:03.226Z,32.4
2018-09-24T12:11:05.733Z,32.3
2018-09-24T12:12:08.178Z,32.4
2018-09-24T12:13:10.338Z,32.4
2018-09-24T12:14:12.506Z,32.4
2018-09-24T12:15:14.950Z,32.4
2018-09-24T12:16:17.426Z,32.5
2018-09-24T12:17:19.887Z,32.4
2018-09-24T12:18:22.343Z,32.4
2018-09-24T12:19:24.801Z,32.5
2018-09-24T12:20:27.226Z,32.4
2018-09-24T12:21:29.660Z,32.4
2018-09-24T12:22:32.101Z,32.3
2018-09-24T12:23:34.527Z,32.3
2018-09-24T12:24:36.964Z,32.5
2018-09-24T12:25:39.404Z,32.4
2018-09-24T12:26:41.838Z,32.5
2018-09-24T12:27:44.276Z,32.5
2018-09-24T12:28:46.421Z,32.5
2018-09-24T12:29:48.855Z,32.4
2018-09-24T12:30:50.982Z,32.4
2018-09-24T12:31:53.160Z,32.3
2018-09-24T12:32:55.592Z,32.4
2018-09-24T12:33:58.047Z,32.4
2018-09-24T12:35:00.479Z,32.5
2018-09-24T12:36:02.902Z,32.4
2018-09-24T12:37:05.328Z,32.3
2018-09-24T12:38:07.493Z,32.5
2018-09-24T12:39:09.956Z,32.4
2018-09-24T12:40:12.095Z,32.5
2018-09-24T12:41:14.526Z,32.5
2018-09-24T12:42:16.953Z,32.5
2018-09-24T12:43:19.378Z,32.5
2018-09-24T12:44:21.541Z,32.4
2018-09-24T12:45:23.964Z,32.4
2018-09-24T12:46:26.396Z,32.4
2018-09-24T12:47:28.833Z,32.5
2018-09-24T12:48:31.256Z,32.4
2018-09-24T12:49:33.679Z,32.5
2018-09-24T12:50:36.130Z,32.5
2018-09-24T12:51:38.574Z,32.5
2018-09-24T12:52:41.014Z,32.4
2018-09-24T12:53:43.449Z,32.5
2018-09-24T12:54:45.867Z,32.4
2018-09-24T12:55:48.297Z,32.5
2018-09-24T12:56:50.748Z,32.3
2018-09-24T12:57:53.197Z,32.5
2018-09-24T12:58:55.331Z,32.5
2018-09-24T12:59:57.755Z,32.4
2018-09-24T13:01:00.211Z,32.4
2018-09-24T13:02:02.365Z,32.5
2018-09-24T13:03:04.807Z,32.5
2018-09-24T13:04:07.235Z,32.5
2018-09-24T13:05:09.673Z,32.5
2018-09-24T13:06:12.128Z,32.5
2018-09-24T13:07:14.555Z,32.5
2018-09-24T13:08:17.042Z,32.3
2018-09-24T13:09:19.574Z,32.4
2018-09-24T13:10:21.733Z,32.3
2018-09-24T13:11:24.159Z,32.4
2018-09-24T13:12:26.585Z,32.3
2018-09-24T13:13:29.013Z,32.4
2018-09-24T13:14:31.432Z,32.5
2018-09-24T13:15:33.901Z,32.5
2018-09-24T13:16:36.349Z,32.4
2018-09-24T13:17:38.797Z,32.4
2018-09-24T13:18:41.235Z,32.4
2018-09-24T13:19:43.681Z,32.4
2018-09-24T13:20:46.117Z,32.4
2018-09-24T13:21:48.545Z,32.4
2018-09-24T13:22:50.979Z,32.5
2018-09-24T13:23:53.406Z,32.6
2018-09-24T13:24:55.839Z,32.4
2018-09-24T13:25:58.271Z,32.5
2018-09-24T13:27:00.795Z,32.5
2018-09-24T13:28:03.578Z,32.3
2018-09-24T13:29:06.018Z,32.4
2018-09-24T13:30:08.438Z,32.4
2018-09-24T13:31:10.861Z,32.5
2018-09-24T13:32:13.037Z,32.5
2018-09-24T13:33:15.478Z,32.6
2018-09-24T13:34:17.921Z,32.3
2018-09-24T13:35:20.359Z,32.5
2018-09-24T13:36:22.790Z,32.4
2018-09-24T13:37:25.231Z,32.5
2018-09-24T13:38:27.672Z,32.4
2018-09-24T13:39:30.118Z,32.3
2018-09-24T13:40:32.565Z,32.5
2018-09-24T13:41:34.995Z,32.4
2018-09-24T13:42:37.438Z,32.4
2018-09-24T13:43:39.881Z,32.3
2018-09-24T13:44:42.335Z,32.4
2018-09-24T13:45:44.774Z,32.4
2018-09-24T13:46:47.251Z,32.5
2018-09-24T13:47:49.735Z,32.4
2018-09-24T13:48:52.173Z,32.4
2018-09-24T13:49:54.610Z,32.4
2018-09-24T13:50:57.034Z,32.5
2018-09-24T13:51:59.267Z,32.4